Time;durP1;ratioP1;P1;durP2;ratioP2;P2;SDS_P1;SDS_P2;PMS_P1;PMS_P2;Temp;Humidity;BMP_temperature;BMP_pressure;BME280_temperature;BME280_humidity;BME280_pressure;Samples;Min_cycle;Max_cycle;Signal;HPM_P1;HPM_P2
2021/04/04 00:00:19;;;;;;;36.63;10.70;;;4.60;99.90;;;;;;5093714;28;20028;-72
2021/04/04 00:02:45;;;;;;;28.67;10.20;;;4.60;99.90;;;;;;5093394;28;20058;-72
2021/04/04 00:05:12;;;;;;;41.10;10.48;;;4.60;99.90;;;;;;5093930;28;20020;-72
2021/04/04 00:07:38;;;;;;;26.88;10.13;;;4.70;99.90;;;;;;5094001;28;20012;-72
2021/04/04 00:10:05;;;;;;;32.33;9.68;;;4.80;99.90;;;;;;5092494;28;20153;-72
2021/04/04 00:12:31;;;;;;;38.40;10.52;;;4.70;99.90;;;;;;5093911;28;20024;-72
2021/04/04 00:14:57;;;;;;;43.33;10.98;;;4.60;99.90;;;;;;5092734;28;20035;-72
2021/04/04 00:17:23;;;;;;;31.45;9.88;;;4.70;99.90;;;;;;5093861;28;20024;-73
2021/04/04 00:19:48;;;;;;;33.75;11.35;;;4.70;99.90;;;;;;5093855;28;20032;-73
2021/04/04 00:22:14;;;;;;;30.02;10.13;;;4.70;99.90;;;;;;5093817;28;20030;-72
2021/04/04 00:24:40;;;;;;;38.85;10.48;;;4.70;99.90;;;;;;5095552;28;20031;-72
2021/04/04 00:27:05;;;;;;;41.80;12.07;;;4.80;99.90;;;;;;5097423;28;20058;-72
2021/04/04 00:29:31;;;;;;;29.20;10.85;;;4.90;99.90;;;;;;5097705;28;20032;-72
2021/04/04 00:31:57;;;;;;;36.78;10.40;;;4.90;99.90;;;;;;5097096;28;20465;-72
2021/04/04 00:34:23;;;;;;;32.80;10.73;;;4.90;99.90;;;;;;5097316;28;20078;-72
2021/04/04 00:36:50;;;;;;;34.08;11.52;;;4.80;99.90;;;;;;5096935;28;20127;-72
2021/04/04 00:39:16;;;;;;;36.00;10.68;;;4.90;99.90;;;;;;5096937;28;20031;-72
2021/04/04 00:41:42;;;;;;;35.45;9.95;;;5.00;99.90;;;;;;5097085;28;20040;-72
2021/04/04 00:44:10;;;;;;;31.63;9.55;;;5.00;99.90;;;;;;5097403;28;20031;-72
2021/04/04 00:46:37;;;;;;;30.70;9.68;;;5.00;99.90;;;;;;5096833;28;20013;-72
2021/04/04 00:49:03;;;;;;;30.33;9.43;;;5.00;99.90;;;;;;5097316;28;20016;-72
2021/04/04 00:51:30;;;;;;;34.60;9.98;;;5.00;99.90;;;;;;5096979;28;20024;-72
2021/04/04 00:53:56;;;;;;;28.17;8.50;;;5.00;99.90;;;;;;5097180;28;20028;-72
2021/04/04 00:56:22;;;;;;;30.08;8.77;;;5.00;99.90;;;;;;5095634;28;20388;-73
2021/04/04 00:58:48;;;;;;;29.20;8.40;;;5.00;99.90;;;;;;5096520;28;20024;-73
2021/04/04 01:01:14;;;;;;;32.45;8.48;;;5.00;99.90;;;;;;5097029;28;20031;-72
2021/04/04 01:03:39;;;;;;;23.00;7.95;;;5.00;99.90;;;;;;5096634;28;20380;-72
2021/04/04 01:06:07;;;;;;;31.70;7.78;;;5.00;99.90;;;;;;5095460;28;20073;-72
2021/04/04 01:08:35;;;;;;;26.83;7.30;;;5.00;99.90;;;;;;5095057;28;20111;-72
2021/04/04 01:11:01;;;;;;;32.28;8.10;;;5.00;99.90;;;;;;5096807;28;20027;-72
2021/04/04 01:13:41;;;;;;;31.05;7.53;;;5.00;99.90;;;;;;5096819;28;20377;-73
2021/04/04 01:16:14;;;;;;;34.03;8.52;;;5.00;99.90;;;;;;5096793;28;20028;-72
2021/04/04 01:19:02;;;;;;;28.02;7.22;;;5.00;99.90;;;;;;5096409;28;20028;-72
2021/04/04 01:21:40;;;;;;;31.95;8.65;;;5.00;99.90;;;;;;5094630;28;20397;-72
2021/04/04 01:24:33;;;;;;;30.95;7.90;;;4.90;99.90;;;;;;5096580;28;20031;-72
2021/04/04 01:29:37;;;;;;;39.30;10.07;;;4.90;99.90;;;;;;5110829;27;20878;-73
2021/04/04 01:32:03;;;;;;;32.47;7.72;;;4.90;99.90;;;;;;5111842;28;20533;-72
2021/04/04 01:34:30;;;;;;;27.77;8.10;;;4.90;99.90;;;;;;5111791;28;20099;-72
2021/04/04 01:37:00;;;;;;;31.52;7.60;;;4.90;99.90;;;;;;5111735;28;20103;-72
2021/04/04 01:39:29;;;;;;;28.25;7.53;;;5.00;99.90;;;;;;5111455;28;20033;-72
2021/04/04 01:41:56;;;;;;;26.27;8.18;;;5.00;99.90;;;;;;5111441;28;20121;-72
2021/04/04 01:44:23;;;;;;;26.95;8.40;;;4.90;99.90;;;;;;5111628;28;20027;-72
2021/04/04 01:46:52;;;;;;;30.38;8.40;;;5.00;99.90;;;;;;5111534;28;20031;-72
2021/04/04 01:49:20;;;;;;;23.50;7.05;;;5.00;99.90;;;;;;5110894;28;20020;-72
2021/04/04 01:51:47;;;;;;;28.77;7.68;;;4.90;99.90;;;;;;5111262;28;20049;-72
2021/04/04 01:54:16;;;;;;;35.50;8.70;;;4.90;99.90;;;;;;5109666;28;20019;-72
2021/04/04 01:56:43;;;;;;;35.60;8.02;;;4.90;99.90;;;;;;5111438;28;20054;-73
2021/04/04 01:59:11;;;;;;;26.90;7.68;;;4.90;99.90;;;;;;5110813;28;20031;-72
2021/04/04 02:01:37;;;;;;;30.10;7.57;;;4.90;99.90;;;;;;5111393;28;20102;-72
2021/04/04 02:04:06;;;;;;;33.28;7.68;;;4.90;99.90;;;;;;5111283;28;20020;-73
2021/04/04 02:06:35;;;;;;;23.48;7.40;;;4.90;99.90;;;;;;5110990;28;20150;-72
2021/04/04 02:09:03;;;;;;;25.25;7.95;;;5.00;99.90;;;;;;5111138;28;20020;-72
2021/04/04 02:11:33;;;;;;;30.30;8.73;;;4.90;99.90;;;;;;5111129;28;20022;-72
2021/04/04 02:14:04;;;;;;;39.92;9.13;;;4.90;99.90;;;;;;5111108;28;20012;-72
2021/04/04 02:16:30;;;;;;;29.70;8.88;;;5.00;99.90;;;;;;5109599;28;20353;-72
2021/04/04 02:18:56;;;;;;;25.98;7.82;;;4.90;99.90;;;;;;5110691;28;20084;-72
2021/04/04 02:21:23;;;;;;;29.23;7.75;;;5.00;99.90;;;;;;5110402;28;20077;-72
2021/04/04 02:23:49;;;;;;;29.27;7.22;;;5.00;99.90;;;;;;5110898;28;20028;-72
2021/04/04 02:26:14;;;;;;;35.60;8.55;;;5.00;99.90;;;;;;5110548;28;20099;-73
2021/04/04 02:28:40;;;;;;;23.85;7.68;;;5.00;99.90;;;;;;5110185;28;20058;-73
2021/04/04 02:31:10;;;;;;;25.77;7.75;;;5.00;99.90;;;;;;5110739;28;20051;-72
2021/04/04 02:33:46;;;;;;;33.97;8.77;;;5.00;99.90;;;;;;5110747;28;20016;-72
2021/04/04 02:36:12;;;;;;;35.65;8.10;;;5.00;99.90;;;;;;5109226;28;20376;-72
2021/04/04 02:38:42;;;;;;;26.35;7.90;;;4.90;99.90;;;;;;5110359;28;20028;-73
2021/04/04 02:41:09;;;;;;;36.75;8.00;;;4.90;99.90;;;;;;5096204;28;20028;-73
2021/04/04 02:43:36;;;;;;;26.17;8.30;;;4.90;99.90;;;;;;5096958;28;20035;-72
2021/04/04 02:46:05;;;;;;;30.17;8.50;;;4.90;99.90;;;;;;5095432;28;20171;-72
2021/04/04 02:48:34;;;;;;;25.08;8.15;;;4.90;99.90;;;;;;5095071;28;20483;-72
2021/04/04 02:51:04;;;;;;;27.80;8.45;;;4.90;99.90;;;;;;5096792;28;20012;-73
2021/04/04 02:53:32;;;;;;;28.88;7.85;;;5.00;99.90;;;;;;5096769;28;20020;-72
2021/04/04 02:56:00;;;;;;;30.92;8.23;;;5.00;99.90;;;;;;5096685;28;20078;-72
2021/04/04 02:58:28;;;;;;;23.38;7.60;;;5.10;99.90;;;;;;5096716;28;20059;-72
2021/04/04 03:00:57;;;;;;;31.80;8.68;;;5.10;99.90;;;;;;5094878;28;20431;-72
2021/04/04 03:03:27;;;;;;;31.75;8.05;;;5.00;99.90;;;;;;5095145;28;20024;-72
2021/04/04 03:05:56;;;;;;;30.83;9.55;;;5.00;99.90;;;;;;5096260;28;20052;-72
2021/04/04 03:08:22;;;;;;;25.20;8.50;;;5.00;99.90;;;;;;5096351;28;20073;-72
2021/04/04 03:10:50;;;;;;;31.35;8.23;;;5.00;99.90;;;;;;5096419;28;20016;-72
2021/04/04 03:13:19;;;;;;;36.25;7.63;;;5.00;99.90;;;;;;5096114;28;20027;-73
2021/04/04 03:15:46;;;;;;;25.42;8.40;;;5.00;99.90;;;;;;5095789;28;20020;-72
2021/04/04 03:18:11;;;;;;;23.05;8.63;;;5.10;99.90;;;;;;5094474;28;20085;-73
2021/04/04 03:20:38;;;;;;;30.60;8.63;;;5.10;99.90;;;;;;5096207;28;20028;-72
2021/04/04 03:23:04;;;;;;;27.52;9.32;;;5.10;99.90;;;;;;5095869;28;20028;-73
2021/04/04 03:25:30;;;;;;;33.10;9.60;;;5.10;99.90;;;;;;5096090;28;20028;-73
2021/04/04 03:27:57;;;;;;;24.88;8.55;;;5.10;99.90;;;;;;5095633;28;20047;-72
2021/04/04 03:30:54;;;;;;;32.92;9.02;;;5.10;99.90;;;;;;5096029;28;20016;-72
2021/04/04 03:33:13;;;;;;;34.22;9.15;;;5.10;99.90;;;;;;5095276;28;20168;-74
2021/04/04 03:35:40;;;;;;;29.48;8.70;;;5.10;99.90;;;;;;5095912;28;20024;-73
2021/04/04 03:38:08;;;;;;;27.02;8.40;;;5.10;99.90;;;;;;5095904;28;20028;-73
2021/04/04 03:40:34;;;;;;;30.35;7.88;;;5.10;99.90;;;;;;5095280;28;20096;-73
2021/04/04 03:43:05;;;;;;;28.63;8.85;;;5.00;99.90;;;;;;5095778;28;20016;-73
2021/04/04 03:45:31;;;;;;;28.58;8.38;;;5.10;99.90;;;;;;5095761;28;20460;-73
2021/04/04 03:47:57;;;;;;;25.33;7.55;;;5.10;99.90;;;;;;5095397;28;20118;-73
2021/04/04 03:50:23;;;;;;;28.83;8.68;;;5.10;99.90;;;;;;5093979;28;20052;-72
2021/04/04 03:52:50;;;;;;;33.70;9.80;;;5.10;99.90;;;;;;5094770;28;20069;-72
2021/04/04 03:55:20;;;;;;;29.05;8.48;;;5.10;99.90;;;;;;5095024;28;20016;-72
2021/04/04 03:57:48;;;;;;;30.23;8.57;;;5.10;99.90;;;;;;5095529;28;20020;-72
2021/04/04 04:00:16;;;;;;;24.80;8.00;;;5.10;99.90;;;;;;5095141;28;20024;-72
2021/04/04 04:02:44;;;;;;;19.10;8.00;;;5.00;99.90;;;;;;5094816;28;20032;-72
2021/04/04 04:05:10;;;;;;;28.38;9.68;;;5.10;99.90;;;;;;5094060;28;20394;-72
2021/04/04 04:07:37;;;;;;;32.10;9.48;;;5.10;99.90;;;;;;5094122;28;20031;-72
2021/04/04 04:10:04;;;;;;;28.10;9.07;;;5.10;99.90;;;;;;5095298;28;20027;-72
2021/04/04 04:12:32;;;;;;;32.42;8.73;;;5.10;99.90;;;;;;5093701;28;20027;-72
2021/04/04 04:14:59;;;;;;;29.10;9.25;;;5.10;99.90;;;;;;5093392;28;20556;-72
2021/04/04 04:17:26;;;;;;;30.75;9.57;;;5.10;99.90;;;;;;5093867;28;20056;-72
2021/04/04 04:19:52;;;;;;;32.20;9.65;;;5.10;99.90;;;;;;5094547;28;20095;-72
2021/04/04 04:22:18;;;;;;;26.15;9.13;;;5.10;99.90;;;;;;5093921;28;20028;-73
2021/04/04 04:24:48;;;;;;;34.58;10.15;;;5.10;99.90;;;;;;5094997;28;20016;-73
2021/04/04 04:27:16;;;;;;;31.95;11.27;;;5.10;99.90;;;;;;5094374;28;20017;-72
2021/04/04 04:29:44;;;;;;;27.52;9.25;;;5.10;99.90;;;;;;5094880;28;20016;-72
2021/04/04 04:32:11;;;;;;;33.88;10.18;;;5.10;99.90;;;;;;5093651;28;20107;-72
2021/04/04 04:34:37;;;;;;;34.67;9.25;;;5.10;99.90;;;;;;5094529;28;20052;-72
2021/04/04 04:37:03;;;;;;;30.80;9.48;;;5.10;99.90;;;;;;5094234;28;20020;-73
2021/04/04 04:39:28;;;;;;;32.28;9.73;;;5.10;99.90;;;;;;5094135;28;20028;-72
2021/04/04 04:41:54;;;;;;;28.00;9.88;;;5.10;99.90;;;;;;5092887;28;20028;-72
2021/04/04 04:44:24;;;;;;;34.22;9.65;;;5.10;99.90;;;;;;5094590;28;20039;-73
2021/04/04 04:46:50;;;;;;;27.10;8.90;;;5.10;99.90;;;;;;5094561;28;20158;-72
2021/04/04 04:49:15;;;;;;;29.55;9.05;;;5.10;99.90;;;;;;5093971;28;20482;-72
2021/04/04 04:51:41;;;;;;;36.40;9.68;;;5.10;99.90;;;;;;5092683;28;20024;-72
2021/04/04 04:54:08;;;;;;;25.52;8.13;;;5.10;99.90;;;;;;5094499;28;20377;-72
2021/04/04 04:56:38;;;;;;;26.02;8.02;;;5.20;99.90;;;;;;5094420;28;20016;-72
2021/04/04 04:59:05;;;;;;;24.75;8.25;;;5.20;99.90;;;;;;5094374;28;20024;-72
2021/04/04 05:01:37;;;;;;;32.42;9.13;;;5.20;99.90;;;;;;5093825;28;20031;-72
2021/04/04 05:04:03;;;;;;;30.00;7.85;;;5.20;99.90;;;;;;5094121;28;20024;-72
2021/04/04 05:06:29;;;;;;;34.90;8.70;;;5.20;99.90;;;;;;5094227;28;20111;-73
2021/04/04 05:08:58;;;;;;;31.48;8.48;;;5.30;99.90;;;;;;5094212;28;20099;-72
2021/04/04 05:11:25;;;;;;;25.85;8.82;;;5.20;99.90;;;;;;5094257;28;20020;-72
2021/04/04 05:13:51;;;;;;;25.70;8.40;;;5.20;99.90;;;;;;5093914;28;20024;-72
2021/04/04 05:16:17;;;;;;;33.92;9.45;;;5.20;99.90;;;;;;5094221;28;20350;-72
2021/04/04 05:18:47;;;;;;;26.00;8.48;;;5.30;99.90;;;;;;5094200;28;20068;-72
2021/04/04 05:21:18;;;;;;;29.50;8.63;;;5.30;99.90;;;;;;5092376;28;20118;-72
2021/04/04 05:23:44;;;;;;;20.10;8.05;;;5.20;99.90;;;;;;5093079;28;20074;-72
2021/04/04 05:26:09;;;;;;;32.22;9.00;;;5.20;99.90;;;;;;5094111;28;20024;-72
2021/04/04 05:28:35;;;;;;;26.70;8.52;;;5.20;99.90;;;;;;5093554;28;20044;-72
2021/04/04 05:31:02;;;;;;;28.58;8.98;;;5.20;99.90;;;;;;5092278;28;20020;-72
2021/04/04 05:33:28;;;;;;;31.77;9.07;;;5.20;99.90;;;;;;5094078;28;20111;-72
2021/04/04 05:35:54;;;;;;;31.95;8.45;;;5.30;99.90;;;;;;5093821;28;20055;-72
2021/04/04 05:38:19;;;;;;;28.10;9.55;;;5.40;99.90;;;;;;5093762;28;20039;-72
2021/04/04 05:40:46;;;;;;;23.40;9.40;;;5.30;99.90;;;;;;5093763;28;20409;-72
2021/04/04 05:43:13;;;;;;;26.35;9.57;;;5.30;99.90;;;;;;5094031;28;20020;-72
2021/04/04 05:45:55;;;;;;;32.30;10.13;;;5.30;99.90;;;;;;5093957;28;20020;-72
2021/04/04 05:48:42;;;;;;;29.58;9.63;;;5.30;99.90;;;;;;5093608;28;20066;-72
2021/04/04 05:51:48;;;;;;;30.35;9.85;;;5.30;99.90;;;;;;5093915;28;20024;-72
2021/04/04 05:54:39;;;;;;;24.05;8.73;;;5.40;99.90;;;;;;5093748;28;20101;-72
2021/04/04 05:57:14;;;;;;;30.80;8.57;;;5.40;99.90;;;;;;5093215;28;20031;-72
2021/04/04 05:59:53;;;;;;;32.75;8.52;;;5.40;99.90;;;;;;5093594;28;20415;-72
2021/04/04 06:02:59;;;;;;;21.23;8.10;;;5.40;99.90;;;;;;5092398;28;20390;-73
2021/04/04 06:06:04;;;;;;;28.98;8.07;;;5.40;99.90;;;;;;5093112;28;20078;-72
2021/04/04 06:09:10;;;;;;;24.88;8.82;;;5.40;99.90;;;;;;5093111;28;20472;-73
2021/04/04 06:12:16;;;;;;;27.15;8.43;;;5.50;99.90;;;;;;5093127;28;20032;-73
2021/04/04 06:15:04;;;;;;;30.90;7.93;;;5.50;99.90;;;;;;5094059;28;20469;-72
2021/04/04 06:17:52;;;;;;;27.48;8.13;;;5.50;99.90;;;;;;5097529;28;20449;-72
2021/04/04 06:20:33;;;;;;;31.85;8.63;;;5.50;99.90;;;;;;5096791;28;20043;-72
2021/04/04 06:23:20;;;;;;;24.08;7.45;;;5.60;99.90;;;;;;5097421;28;20077;-72
2021/04/04 06:26:23;;;;;;;22.83;6.95;;;5.60;99.90;;;;;;5097365;28;20085;-72
2021/04/04 06:29:06;;;;;;;22.63;8.35;;;5.70;99.90;;;;;;5096530;28;20067;-72
2021/04/04 06:31:59;;;;;;;30.40;8.70;;;5.70;99.90;;;;;;5097250;28;20373;-73
2021/04/04 06:37:43;;;;;;;33.65;9.23;;;5.80;99.90;;;;;;5112221;27;20347;-73
2021/04/04 06:40:12;;;;;;;22.42;7.95;;;5.90;99.90;;;;;;5111393;28;20031;-73
2021/04/04 06:43:04;;;;;;;20.25;9.05;;;5.90;99.90;;;;;;5094154;28;20020;-73
2021/04/04 06:45:44;;;;;;;23.05;8.02;;;5.90;99.90;;;;;;5111183;28;20066;-73
2021/04/04 06:48:49;;;;;;;28.88;9.57;;;6.00;99.90;;;;;;5111704;28;20027;-73
2021/04/04 06:51:41;;;;;;;26.92;8.85;;;6.10;99.90;;;;;;5110933;28;20058;-73
2021/04/04 06:54:47;;;;;;;24.52;8.98;;;6.10;99.90;;;;;;5111365;28;20126;-73
2021/04/04 06:57:26;;;;;;;27.08;9.25;;;6.10;99.90;;;;;;5109772;28;20115;-73
2021/04/04 07:00:06;;;;;;;22.52;8.68;;;6.10;99.90;;;;;;5111517;28;20044;-73
2021/04/04 07:02:56;;;;;;;27.60;9.35;;;6.10;99.90;;;;;;5111449;28;20453;-73
2021/04/04 07:05:24;;;;;;;28.75;10.05;;;6.10;99.90;;;;;;5111025;28;20461;-73
2021/04/04 07:08:30;;;;;;;30.88;10.23;;;6.10;99.90;;;;;;5111347;28;20020;-73
2021/04/04 07:11:22;;;;;;;28.83;9.48;;;6.20;99.90;;;;;;5109332;28;20047;-73
2021/04/04 07:14:14;;;;;;;25.08;10.18;;;6.20;99.90;;;;;;5110559;28;20024;-73
2021/04/04 07:17:05;;;;;;;24.80;7.63;;;6.20;99.90;;;;;;5111140;28;20024;-73
2021/04/04 07:22:18;;;;;;;21.15;8.90;;;6.10;99.90;;;;;;5110951;27;20886;-73
2021/04/04 07:25:10;;;;;;;23.70;7.80;;;6.30;99.90;;;;;;5111925;28;20028;-73
2021/04/04 07:28:15;;;;;;;25.00;8.00;;;6.20;99.90;;;;;;5111312;28;20035;-73
2021/04/04 07:30:53;;;;;;;18.23;6.50;;;6.30;99.90;;;;;;5111221;28;20116;-73
2021/04/04 07:33:59;;;;;;;23.25;7.00;;;6.40;99.90;;;;;;5111798;28;20032;-73
2021/04/04 07:36:43;;;;;;;17.50;5.35;;;6.50;99.90;;;;;;5111016;28;20066;-73
2021/04/04 07:39:21;;;;;;;23.73;5.72;;;6.50;99.90;;;;;;5111580;28;20384;-73
2021/04/04 07:42:05;;;;;;;22.85;5.65;;;6.60;99.90;;;;;;5111273;28;20449;-74
2021/04/04 07:44:39;;;;;;;16.95;4.95;;;6.60;99.90;;;;;;5111250;28;20028;-73
2021/04/04 07:47:21;;;;;;;16.27;4.75;;;6.60;99.90;;;;;;5110072;28;20024;-73
2021/04/04 07:50:08;;;;;;;9.60;3.80;;;6.60;99.90;;;;;;5111430;28;20437;-73
2021/04/04 07:52:40;;;;;;;9.10;3.67;;;6.60;99.90;;;;;;5110931;28;20023;-74
2021/04/04 07:55:16;;;;;;;11.83;4.13;;;6.50;99.90;;;;;;5111063;28;20016;-73
2021/04/04 07:58:10;;;;;;;10.32;3.50;;;6.60;99.90;;;;;;5111220;28;20059;-74
2021/04/04 08:00:43;;;;;;;11.35;3.72;;;6.50;99.90;;;;;;5092307;28;20028;-73
2021/04/04 08:03:16;;;;;;;12.20;3.97;;;6.50;99.90;;;;;;5110934;28;20054;-73
2021/04/04 08:05:46;;;;;;;13.77;4.32;;;6.50;99.90;;;;;;5111124;28;20026;-73
2021/04/04 08:08:16;;;;;;;12.65;3.90;;;6.50;99.90;;;;;;5111087;28;20092;-73
2021/04/04 08:11:05;;;;;;;15.40;4.22;;;6.70;99.90;;;;;;5109549;28;20028;-73
2021/04/04 08:13:41;;;;;;;16.38;3.85;;;6.90;99.90;;;;;;5109890;28;20016;-73
2021/04/04 08:16:18;;;;;;;9.90;3.22;;;6.80;99.90;;;;;;5110904;28;20118;-73
2021/04/04 08:18:46;;;;;;;14.07;4.18;;;6.80;99.90;;;;;;5110663;28;20031;-74
2021/04/04 08:21:15;;;;;;;10.68;3.92;;;6.70;99.90;;;;;;5110138;28;20044;-73
2021/04/04 08:23:55;;;;;;;10.73;3.25;;;6.60;99.90;;;;;;5110824;28;20449;-73
2021/04/04 08:26:29;;;;;;;13.75;4.30;;;6.50;99.90;;;;;;5110757;28;20020;-73
2021/04/04 08:28:59;;;;;;;;;;;6.40;99.90;;;;;;5110625;28;20026;-73
2021/04/04 08:31:31;;;;;;;11.95;3.72;;;6.40;99.90;;;;;;5108463;28;19908;-73
2021/04/04 08:34:04;;;;;;;10.55;3.95;;;6.40;99.90;;;;;;5096938;28;20108;-73
2021/04/04 08:36:33;;;;;;;11.52;4.38;;;6.50;99.90;;;;;;5096472;28;20036;-73
2021/04/04 08:39:01;;;;;;;15.43;3.97;;;6.50;99.90;;;;;;5095822;28;20024;-73
2021/04/04 08:41:33;;;;;;;11.20;3.70;;;6.50;99.90;;;;;;5096559;28;20024;-73
2021/04/04 08:44:03;;;;;;;11.15;3.47;;;6.60;99.90;;;;;;5096882;28;20103;-73
2021/04/04 08:46:40;;;;;;;9.93;3.15;;;6.70;99.90;;;;;;5096830;28;20020;-73
2021/04/04 08:49:07;;;;;;;11.95;3.58;;;6.60;99.90;;;;;;5095089;28;20362;-73
2021/04/04 08:51:38;;;;;;;8.45;3.50;;;6.50;99.90;;;;;;5096701;28;20031;-73
2021/04/04 08:54:13;;;;;;;8.90;3.42;;;6.40;99.90;;;;;;5096679;28;20034;-73
2021/04/04 08:56:42;;;;;;;16.35;3.80;;;6.30;99.90;;;;;;5096357;28;20169;-73
2021/04/04 08:59:08;;;;;;;9.07;3.72;;;6.40;99.90;;;;;;5096567;28;20016;-73
2021/04/04 09:01:38;;;;;;;13.57;4.65;;;6.50;99.90;;;;;;5096449;28;20024;-73
2021/04/04 09:04:07;;;;;;;17.05;4.20;;;6.40;99.90;;;;;;5096455;28;20103;-73
2021/04/04 09:06:41;;;;;;;16.30;4.82;;;6.50;99.90;;;;;;5094558;28;20350;-73
2021/04/04 09:09:19;;;;;;;9.68;4.03;;;6.70;99.90;;;;;;5096383;28;20020;-73
2021/04/04 09:11:48;;;;;;;14.38;4.57;;;6.80;99.90;;;;;;5096342;28;20410;-73
2021/04/04 09:14:16;;;;;;;11.60;3.80;;;7.00;99.90;;;;;;5094833;28;20028;-73
2021/04/04 09:16:52;;;;;;;14.40;3.85;;;7.00;99.90;;;;;;5095946;28;20020;-73
2021/04/04 09:19:26;;;;;;;13.65;4.15;;;7.20;99.90;;;;;;5096198;28;20376;-73
2021/04/04 09:21:53;;;;;;;12.55;4.05;;;7.30;99.90;;;;;;5094308;28;20043;-73
2021/04/04 09:24:18;;;;;;;11.73;4.20;;;7.30;99.90;;;;;;5095850;28;20103;-73
2021/04/04 09:26:45;;;;;;;10.73;4.00;;;7.30;99.90;;;;;;5096022;28;20406;-73
2021/04/04 09:29:12;;;;;;;9.77;3.65;;;7.30;99.90;;;;;;5096014;28;20024;-73
2021/04/04 09:31:39;;;;;;;7.82;3.88;;;7.10;99.90;;;;;;5095945;28;20031;-73
2021/04/04 09:34:10;;;;;;;11.32;4.18;;;7.10;99.90;;;;;;5094759;28;20035;-73
2021/04/04 09:36:42;;;;;;;13.15;4.13;;;7.10;99.90;;;;;;5095850;28;20020;-74
2021/04/04 09:39:10;;;;;;;14.30;4.43;;;7.20;99.90;;;;;;5095803;28;20025;-73
2021/04/04 09:41:38;;;;;;;10.07;3.95;;;7.00;99.90;;;;;;5095416;28;20024;-73
2021/04/04 09:44:05;;;;;;;12.15;4.43;;;6.80;99.90;;;;;;5094388;28;20106;-73
2021/04/04 09:46:31;;;;;;;8.25;3.47;;;6.80;99.90;;;;;;5095643;28;20020;-74
2021/04/04 09:48:57;;;;;;;9.77;3.67;;;6.90;99.90;;;;;;5095586;28;20442;-73
2021/04/04 09:51:23;;;;;;;11.57;4.05;;;6.90;99.90;;;;;;5094126;28;20016;-73
2021/04/04 09:53:52;;;;;;;14.85;3.88;;;6.80;99.90;;;;;;5095467;28;20179;-73
2021/04/04 09:56:19;;;;;;;17.35;6.28;;;6.90;99.90;;;;;;5095190;28;20043;-73
2021/04/04 09:58:47;;;;;;;27.20;11.55;;;6.80;99.90;;;;;;5095451;28;20105;-73
2021/04/04 10:01:15;;;;;;;26.48;12.93;;;6.80;99.90;;;;;;5093494;28;20032;-73
2021/04/04 10:03:41;;;;;;;19.13;11.35;;;6.80;99.90;;;;;;5095321;28;20371;-72
2021/04/04 10:06:13;;;;;;;21.33;10.60;;;6.70;99.90;;;;;;5093504;28;20024;-73
2021/04/04 10:08:52;;;;;;;14.35;7.03;;;6.80;99.90;;;;;;5095223;28;20114;-74
2021/04/04 10:11:19;;;;;;;9.85;5.10;;;6.80;99.90;;;;;;5095186;28;20020;-74
2021/04/04 10:13:44;;;;;;;11.45;4.30;;;6.90;99.90;;;;;;5093657;28;20077;-74
2021/04/04 10:16:19;;;;;;;9.65;3.25;;;6.90;99.90;;;;;;5095063;28;20069;-74
2021/04/04 10:19:09;;;;;;;11.50;3.95;;;6.90;99.90;;;;;;5093847;28;20027;-74
2021/04/04 10:21:38;;;;;;;12.40;3.78;;;7.10;99.90;;;;;;5093030;28;20054;-73
2021/04/04 10:24:31;;;;;;;8.45;3.45;;;7.30;99.90;;;;;;5094940;28;20099;-73
2021/04/04 10:27:22;;;;;;;9.55;4.10;;;7.20;99.90;;;;;;5094357;28;20020;-73
2021/04/04 10:29:49;;;;;;;14.00;3.75;;;7.40;99.90;;;;;;5094792;28;20051;-73
2021/04/04 10:32:25;;;;;;;7.35;3.58;;;7.50;99.90;;;;;;5093826;28;20024;-73
2021/04/04 10:34:50;;;;;;;6.70;2.85;;;7.70;99.90;;;;;;5094678;28;20027;-73
2021/04/04 10:37:25;;;;;;;6.43;2.85;;;7.60;99.90;;;;;;5076041;28;20020;-73
2021/04/04 10:40:09;;;;;;;7.38;2.92;;;7.70;99.90;;;;;;5094311;28;20034;-73
2021/04/04 10:42:36;;;;;;;8.90;2.90;;;7.70;99.90;;;;;;5094618;28;20039;-73
2021/04/04 10:45:16;;;;;;;10.95;3.05;;;7.90;99.90;;;;;;5094576;28;20020;-73
2021/04/04 10:47:43;;;;;;;8.75;2.83;;;8.00;99.90;;;;;;5094534;28;20016;-73
2021/04/04 10:50:13;;;;;;;7.20;3.15;;;8.00;99.90;;;;;;5092681;28;20030;-73
2021/04/04 10:52:40;;;;;;;9.15;3.00;;;7.90;99.90;;;;;;5094476;28;20099;-73
2021/04/04 10:55:09;;;;;;;6.65;2.95;;;7.80;99.90;;;;;;5094190;28;20103;-73
2021/04/04 10:57:36;;;;;;;8.55;3.33;;;7.80;99.90;;;;;;5094092;28;20107;-73
2021/04/04 11:00:06;;;;;;;8.07;2.97;;;7.90;99.90;;;;;;5093090;28;20021;-73
2021/04/04 11:02:31;;;;;;;11.05;3.75;;;7.60;99.90;;;;;;5094340;28;20436;-74
2021/04/04 11:04:58;;;;;;;9.43;3.25;;;7.50;99.90;;;;;;5094329;28;20039;-74
2021/04/04 11:07:24;;;;;;;7.80;3.38;;;7.50;99.90;;;;;;5094275;28;20016;-74
2021/04/04 11:09:50;;;;;;;8.73;3.05;;;7.50;99.90;;;;;;5094227;28;20031;-73
2021/04/04 11:12:16;;;;;;;9.57;3.45;;;7.50;99.90;;;;;;5094232;28;20032;-73
2021/04/04 11:14:45;;;;;;;11.05;3.50;;;7.40;99.90;;;;;;5093927;28;20073;-73
2021/04/04 11:17:12;;;;;;;10.93;3.38;;;7.30;99.90;;;;;;5094186;28;20484;-73
2021/04/04 11:19:44;;;;;;;6.13;3.42;;;7.30;99.90;;;;;;5076010;28;20484;-73
2021/04/04 11:22:13;;;;;;;7.75;3.63;;;7.30;99.90;;;;;;5092586;28;20097;-74
2021/04/04 11:24:39;;;;;;;10.23;3.08;;;7.50;99.90;;;;;;5092646;28;20105;-73
2021/04/04 11:27:05;;;;;;;6.55;2.75;;;7.40;99.90;;;;;;5094114;28;20066;-73
2021/04/04 11:29:43;;;;;;;7.18;3.05;;;7.30;99.90;;;;;;5093780;28;20124;-74
2021/04/04 11:32:17;;;;;;;9.48;3.50;;;7.50;99.90;;;;;;5092339;28;20028;-74
2021/04/04 11:34:58;;;;;;;5.20;3.15;;;7.70;99.90;;;;;;5093409;28;20031;-73
2021/04/04 11:40:24;;;;;;;4.25;2.78;;;7.70;99.90;;;;;;5112159;27;20359;-73
2021/04/04 11:43:11;;;;;;;8.18;3.65;;;7.60;99.90;;;;;;5094126;28;20028;-73
2021/04/04 11:45:38;;;;;;;8.00;2.92;;;7.60;99.90;;;;;;5111284;28;20427;-73
2021/04/04 11:48:32;;;;;;;6.97;3.22;;;7.60;99.90;;;;;;5111822;28;20065;-73
2021/04/04 11:51:18;;;;;;;5.95;2.78;;;7.70;99.90;;;;;;5111214;28;20107;-74
2021/04/04 11:53:47;;;;;;;6.68;2.80;;;7.80;99.90;;;;;;5109870;28;20027;-74
2021/04/04 11:56:41;;;;;;;8.07;2.40;;;7.70;99.90;;;;;;5111682;28;20015;-73
2021/04/04 11:59:06;;;;;;;;;;;7.50;99.90;;;;;;5112054;28;20472;-74
2021/04/04 12:01:32;;;;;;;5.63;2.78;;;7.70;99.90;;;;;;5111316;28;19904;-74
2021/04/04 12:04:42;;;;;;;7.35;3.25;;;7.60;99.90;;;;;;5111574;28;20024;-74
2021/04/04 12:07:10;;;;;;;5.10;2.80;;;7.60;99.90;;;;;;5111210;28;20148;-74
2021/04/04 12:09:37;;;;;;;6.55;3.25;;;7.70;99.90;;;;;;5111461;28;20023;-74
2021/04/04 12:12:04;;;;;;;4.28;2.45;;;7.80;99.90;;;;;;5092713;28;20073;-73
2021/04/04 12:14:30;;;;;;;6.07;2.50;;;7.90;99.90;;;;;;5111360;28;20027;-73
2021/04/04 12:16:56;;;;;;;7.47;2.90;;;8.00;99.90;;;;;;5111036;28;20039;-74
2021/04/04 12:19:27;;;;;;;8.90;3.13;;;7.90;99.90;;;;;;5110916;28;20436;-73
2021/04/04 12:21:54;;;;;;;5.38;2.80;;;7.90;99.90;;;;;;5110641;28;20023;-73
2021/04/04 12:24:20;;;;;;;5.03;2.90;;;7.80;99.90;;;;;;5109339;28;20469;-73
2021/04/04 12:26:46;;;;;;;6.63;2.83;;;7.90;99.90;;;;;;5109403;28;20161;-73
2021/04/04 12:29:11;;;;;;;7.57;3.05;;;7.80;99.90;;;;;;5110790;28;20103;-73
2021/04/04 12:31:40;;;;;;;9.43;3.20;;;7.90;99.90;;;;;;5110487;28;20369;-73
2021/04/04 12:34:06;;;;;;;5.28;3.10;;;8.00;99.90;;;;;;5110715;28;20020;-73
2021/04/04 12:36:41;;;;;;;5.80;3.17;;;7.80;99.90;;;;;;5110932;28;20016;-73
2021/04/04 12:39:07;;;;;;;7.03;3.50;;;7.80;99.90;;;;;;5110269;28;20552;-73
2021/04/04 12:41:32;;;;;;;4.88;3.22;;;7.90;99.90;;;;;;5110816;28;20103;-74
2021/04/04 12:43:58;;;;;;;7.55;3.15;;;7.80;99.90;;;;;;5110778;28;20061;-73
2021/04/04 12:46:30;;;;;;;5.68;3.10;;;7.90;99.90;;;;;;5109659;28;20104;-74
2021/04/04 12:48:56;;;;;;;6.47;2.97;;;7.90;99.90;;;;;;5110413;28;20030;-73
2021/04/04 12:51:21;;;;;;;13.98;6.40;;;7.70;99.90;;;;;;5097795;28;20024;-73
2021/04/04 12:53:47;;;;;;;10.88;4.75;;;7.70;99.90;;;;;;5095300;28;20060;-73
2021/04/04 12:56:12;;;;;;;7.55;3.45;;;7.80;99.90;;;;;;5096987;28;20068;-74
2021/04/04 12:58:39;;;;;;;6.50;4.03;;;7.90;99.90;;;;;;5096617;28;20443;-73
2021/04/04 13:01:05;;;;;;;5.40;3.22;;;8.00;99.90;;;;;;5096333;28;20016;-73
2021/04/04 13:03:33;;;;;;;7.40;3.33;;;8.00;99.90;;;;;;5095394;28;20032;-73
2021/04/04 13:05:58;;;;;;;9.00;3.40;;;8.00;99.90;;;;;;5096811;28;20061;-73
2021/04/04 13:08:27;;;;;;;10.68;3.75;;;8.00;99.90;;;;;;5096487;28;20036;-73
2021/04/04 13:10:57;;;;;;;7.05;3.70;;;8.20;99.90;;;;;;5096383;28;20021;-73
2021/04/04 13:13:28;;;;;;;8.57;3.40;;;8.40;99.90;;;;;;5096677;28;20103;-73
2021/04/04 13:16:11;;;;;;;7.32;3.13;;;8.40;99.90;;;;;;5096605;28;20024;-73
2021/04/04 13:18:40;;;;;;;6.78;3.40;;;8.30;99.90;;;;;;5096229;28;20020;-73
2021/04/04 13:21:13;;;;;;;5.47;3.22;;;8.10;99.90;;;;;;5096243;28;20080;-73
2021/04/04 13:23:41;;;;;;;8.52;3.50;;;8.30;99.90;;;;;;5095917;28;20020;-73